Terminal Aerodrome Forecast
Issued by NWS Twin Cities, MN

Home | Current Version | Previous Version | Text Only | Print | Product List | Glossary Off
Versions: 1 2 3 4 5 6 7 8 9 10 11 12 13 14 15 16 17 18 19 20

332
FTUS43 KMPX 132329
TAFSTC
TAF
KSTC 132329Z 1400/1424 15012KT P6SM -SHRA VCTS SCT020 BKN040CB
      TEMPO 1400/1404 4SM SHRA SCT012 OVC025
     FM140400 12008KT P6SM -SHRA VCTS SCT012 BKN040CB
      TEMPO 1405/1408 4SM SHRA BKN012
     FM141000 12005KT P6SM VCSH SCT008 OVC012
     FM141200 10004KT 3SM BR OVC008
     FM141800 07003KT P6SM OVC015
     FM142100 06003KT P6SM SCT020 BKN040=

USA.gov is the U.S. government's official web portal to all federal, state and local government web resources and services.